sensor_id;sensor_type;location;lat;lon;timestamp;temperature;humidity
44190;DHT22;29856;52.144;5.430;2024-01-30T00:00:08;9.70;99.90
44190;DHT22;29856;52.144;5.430;2024-01-30T00:02:34;9.80;99.90
44190;DHT22;29856;52.144;5.430;2024-01-30T00:05:02;9.70;99.90
44190;DHT22;29856;52.144;5.430;2024-01-30T00:07:28;9.80;99.90
44190;DHT22;29856;52.144;5.430;2024-01-30T00:09:54;9.80;99.90
44190;DHT22;29856;52.144;5.430;2024-01-30T00:12:19;9.70;99.90
44190;DHT22;29856;52.144;5.430;2024-01-30T00:14:45;9.90;99.90
44190;DHT22;29856;52.144;5.430;2024-01-30T00:17:10;9.80;99.90
44190;DHT22;29856;52.144;5.430;2024-01-30T00:19:36;9.80;99.90
44190;DHT22;29856;52.144;5.430;2024-01-30T00:22:01;9.80;99.90
44190;DHT22;29856;52.144;5.430;2024-01-30T00:24:27;9.70;99.90
44190;DHT22;29856;52.144;5.430;2024-01-30T00:26:52;9.70;99.90
44190;DHT22;29856;52.144;5.430;2024-01-30T00:29:18;9.70;99.90
44190;DHT22;29856;52.144;5.430;2024-01-30T00:31:43;9.60;99.90
44190;DHT22;29856;52.144;5.430;2024-01-30T00:34:09;9.60;99.90
44190;DHT22;29856;52.144;5.430;2024-01-30T00:36:34;9.60;99.90
44190;DHT22;29856;52.144;5.430;2024-01-30T00:39:00;9.50;99.90
44190;DHT22;29856;52.144;5.430;2024-01-30T00:41:25;9.50;99.90
44190;DHT22;29856;52.144;5.430;2024-01-30T00:43:51;9.60;99.90
44190;DHT22;29856;52.144;5.430;2024-01-30T00:46:16;9.50;99.90
44190;DHT22;29856;52.144;5.430;2024-01-30T00:48:41;9.40;99.90
44190;DHT22;29856;52.144;5.430;2024-01-30T00:51:07;9.40;99.90
44190;DHT22;29856;52.144;5.430;2024-01-30T00:53:32;9.40;99.90
44190;DHT22;29856;52.144;5.430;2024-01-30T00:55:58;9.40;99.90
44190;DHT22;29856;52.144;5.430;2024-01-30T00:58:23;9.40;99.90
44190;DHT22;29856;52.144;5.430;2024-01-30T01:00:49;9.40;99.90
44190;DHT22;29856;52.144;5.430;2024-01-30T01:03:14;9.50;99.90
44190;DHT22;29856;52.144;5.430;2024-01-30T01:05:40;9.50;99.90
44190;DHT22;29856;52.144;5.430;2024-01-30T01:08:05;9.50;99.90
44190;DHT22;29856;52.144;5.430;2024-01-30T01:10:31;9.50;99.90
44190;DHT22;29856;52.144;5.430;2024-01-30T01:12:56;9.60;99.90
44190;DHT22;29856;52.144;5.430;2024-01-30T01:15:22;9.50;99.90
44190;DHT22;29856;52.144;5.430;2024-01-30T01:17:50;9.50;99.90
44190;DHT22;29856;52.144;5.430;2024-01-30T01:20:16;9.50;99.90
44190;DHT22;29856;52.144;5.430;2024-01-30T01:22:41;9.50;99.90
44190;DHT22;29856;52.144;5.430;2024-01-30T01:25:07;9.50;99.90
44190;DHT22;29856;52.144;5.430;2024-01-30T01:27:32;9.40;99.90
44190;DHT22;29856;52.144;5.430;2024-01-30T01:29:58;9.40;99.90
44190;DHT22;29856;52.144;5.430;2024-01-30T01:32:23;9.40;99.90
44190;DHT22;29856;52.144;5.430;2024-01-30T01:34:52;9.30;99.90
44190;DHT22;29856;52.144;5.430;2024-01-30T01:37:17;9.30;99.90
44190;DHT22;29856;52.144;5.430;2024-01-30T01:39:43;9.30;99.90
44190;DHT22;29856;52.144;5.430;2024-01-30T01:42:08;9.30;99.90
44190;DHT22;29856;52.144;5.430;2024-01-30T01:44:33;9.30;99.90
44190;DHT22;29856;52.144;5.430;2024-01-30T01:46:59;9.30;99.90
44190;DHT22;29856;52.144;5.430;2024-01-30T01:49:25;9.30;99.90
44190;DHT22;29856;52.144;5.430;2024-01-30T01:51:54;9.30;99.90
44190;DHT22;29856;52.144;5.430;2024-01-30T01:54:20;9.30;99.90
44190;DHT22;29856;52.144;5.430;2024-01-30T01:56:46;9.40;99.90
44190;DHT22;29856;52.144;5.430;2024-01-30T01:59:13;9.40;99.90
44190;DHT22;29856;52.144;5.430;2024-01-30T02:01:39;9.40;99.90
44190;DHT22;29856;52.144;5.430;2024-01-30T02:04:04;9.40;99.90
44190;DHT22;29856;52.144;5.430;2024-01-30T02:06:31;9.30;99.90
44190;DHT22;29856;52.144;5.430;2024-01-30T02:08:57;9.30;99.90
44190;DHT22;29856;52.144;5.430;2024-01-30T02:11:23;9.40;99.90
44190;DHT22;29856;52.144;5.430;2024-01-30T02:13:49;9.30;99.90
44190;DHT22;29856;52.144;5.430;2024-01-30T02:16:14;9.30;99.90
44190;DHT22;29856;52.144;5.430;2024-01-30T02:18:40;9.40;99.90
44190;DHT22;29856;52.144;5.430;2024-01-30T02:21:05;9.30;99.90
44190;DHT22;29856;52.144;5.430;2024-01-30T02:23:32;9.30;99.90
44190;DHT22;29856;52.144;5.430;2024-01-30T02:25:58;9.40;99.90
44190;DHT22;29856;52.144;5.430;2024-01-30T02:28:24;9.40;99.90
44190;DHT22;29856;52.144;5.430;2024-01-30T02:30:49;9.40;99.90
44190;DHT22;29856;52.144;5.430;2024-01-30T02:33:15;9.40;99.90
44190;DHT22;29856;52.144;5.430;2024-01-30T02:35:40;9.40;99.90
44190;DHT22;29856;52.144;5.430;2024-01-30T02:38:06;9.40;99.90
44190;DHT22;29856;52.144;5.430;2024-01-30T02:40:31;9.50;99.90
44190;DHT22;29856;52.144;5.430;2024-01-30T02:42:59;9.40;99.90
44190;DHT22;29856;52.144;5.430;2024-01-30T02:45:25;9.40;99.90
44190;DHT22;29856;52.144;5.430;2024-01-30T02:47:52;9.50;99.90
44190;DHT22;29856;52.144;5.430;2024-01-30T02:50:17;9.50;99.90
44190;DHT22;29856;52.144;5.430;2024-01-30T02:52:43;9.50;99.90
44190;DHT22;29856;52.144;5.430;2024-01-30T02:55:08;9.50;99.90
44190;DHT22;29856;52.144;5.430;2024-01-30T02:57:34;9.60;99.90
44190;DHT22;29856;52.144;5.430;2024-01-30T03:00:00;9.60;99.90
44190;DHT22;29856;52.144;5.430;2024-01-30T03:02:25;9.50;99.90
44190;DHT22;29856;52.144;5.430;2024-01-30T03:04:51;9.50;99.90
44190;DHT22;29856;52.144;5.430;2024-01-30T03:07:16;9.50;92.10
44190;DHT22;29856;52.144;5.430;2024-01-30T03:09:42;9.50;99.90
44190;DHT22;29856;52.144;5.430;2024-01-30T03:12:07;9.50;99.90
44190;DHT22;29856;52.144;5.430;2024-01-30T03:14:33;9.50;99.90
44190;DHT22;29856;52.144;5.430;2024-01-30T03:16:58;9.50;99.90
44190;DHT22;29856;52.144;5.430;2024-01-30T03:19:24;9.50;99.90
44190;DHT22;29856;52.144;5.430;2024-01-30T03:21:50;9.50;99.90
44190;DHT22;29856;52.144;5.430;2024-01-30T03:24:15;9.40;99.90
44190;DHT22;29856;52.144;5.430;2024-01-30T03:26:41;9.50;99.90
44190;DHT22;29856;52.144;5.430;2024-01-30T03:29:06;9.40;99.90
44190;DHT22;29856;52.144;5.430;2024-01-30T03:31:32;9.40;99.90
44190;DHT22;29856;52.144;5.430;2024-01-30T03:33:57;9.50;99.90
44190;DHT22;29856;52.144;5.430;2024-01-30T03:36:23;9.60;99.90
44190;DHT22;29856;52.144;5.430;2024-01-30T03:38:48;9.60;99.90
44190;DHT22;29856;52.144;5.430;2024-01-30T03:41:14;9.60;99.90
44190;DHT22;29856;52.144;5.430;2024-01-30T03:43:40;9.70;99.90
44190;DHT22;29856;52.144;5.430;2024-01-30T03:46:05;9.70;99.90
44190;DHT22;29856;52.144;5.430;2024-01-30T03:48:31;9.70;99.90
44190;DHT22;29856;52.144;5.430;2024-01-30T03:50:56;9.70;70.30
44190;DHT22;29856;52.144;5.430;2024-01-30T03:53:22;9.60;63.50
44190;DHT22;29856;52.144;5.430;2024-01-30T03:55:47;9.50;61.10
44190;DHT22;29856;52.144;5.430;2024-01-30T03:58:13;9.50;70.80
44190;DHT22;29856;52.144;5.430;2024-01-30T04:00:38;9.50;98.90
44190;DHT22;29856;52.144;5.430;2024-01-30T04:03:04;9.50;99.90
44190;DHT22;29856;52.144;5.430;2024-01-30T04:05:29;9.50;99.90
44190;DHT22;29856;52.144;5.430;2024-01-30T04:07:55;9.50;99.80
44190;DHT22;29856;52.144;5.430;2024-01-30T04:10:20;9.50;99.90
44190;DHT22;29856;52.144;5.430;2024-01-30T04:12:46;9.50;99.90
44190;DHT22;29856;52.144;5.430;2024-01-30T04:15:11;9.60;99.90
44190;DHT22;29856;52.144;5.430;2024-01-30T04:17:37;9.60;99.90
44190;DHT22;29856;52.144;5.430;2024-01-30T04:20:03;9.60;97.90
44190;DHT22;29856;52.144;5.430;2024-01-30T04:22:28;9.60;96.70
44190;DHT22;29856;52.144;5.430;2024-01-30T04:24:54;9.60;99.90
44190;DHT22;29856;52.144;5.430;2024-01-30T04:27:19;9.60;99.40
44190;DHT22;29856;52.144;5.430;2024-01-30T04:29:44;9.60;64.50
44190;DHT22;29856;52.144;5.430;2024-01-30T04:32:10;9.60;99.90
44190;DHT22;29856;52.144;5.430;2024-01-30T04:34:38;9.60;99.90
44190;DHT22;29856;52.144;5.430;2024-01-30T04:37:04;9.60;72.70
44190;DHT22;29856;52.144;5.430;2024-01-30T04:39:29;9.60;68.40
44190;DHT22;29856;52.144;5.430;2024-01-30T04:41:55;9.50;93.20
44190;DHT22;29856;52.144;5.430;2024-01-30T04:44:20;9.60;99.90
44190;DHT22;29856;52.144;5.430;2024-01-30T04:46:46;9.50;98.60
44190;DHT22;29856;52.144;5.430;2024-01-30T04:49:11;9.50;98.40
44190;DHT22;29856;52.144;5.430;2024-01-30T04:51:37;9.50;97.20
44190;DHT22;29856;52.144;5.430;2024-01-30T04:54:02;9.50;96.10
44190;DHT22;29856;52.144;5.430;2024-01-30T04:56:28;9.50;99.90
44190;DHT22;29856;52.144;5.430;2024-01-30T04:58:53;9.50;99.70
44190;DHT22;29856;52.144;5.430;2024-01-30T05:01:19;9.50;89.00
44190;DHT22;29856;52.144;5.430;2024-01-30T05:03:44;9.50;99.90
44190;DHT22;29856;52.144;5.430;2024-01-30T05:06:10;9.60;99.90
44190;DHT22;29856;52.144;5.430;2024-01-30T05:08:35;9.60;91.50
44190;DHT22;29856;52.144;5.430;2024-01-30T05:11:01;9.60;69.20
44190;DHT22;29856;52.144;5.430;2024-01-30T05:13:26;9.60;99.90
44190;DHT22;29856;52.144;5.430;2024-01-30T05:15:52;9.60;99.90
44190;DHT22;29856;52.144;5.430;2024-01-30T05:18:17;9.50;91.70
44190;DHT22;29856;52.144;5.430;2024-01-30T05:20:43;9.50;99.90
44190;DHT22;29856;52.144;5.430;2024-01-30T05:23:08;9.60;99.90
44190;DHT22;29856;52.144;5.430;2024-01-30T05:25:34;9.60;99.90
44190;DHT22;29856;52.144;5.430;2024-01-30T05:27:59;9.60;99.90
44190;DHT22;29856;52.144;5.430;2024-01-30T05:30:24;9.60;99.90
44190;DHT22;29856;52.144;5.430;2024-01-30T05:32:50;9.50;99.90
44190;DHT22;29856;52.144;5.430;2024-01-30T05:35:15;9.50;99.90
44190;DHT22;29856;52.144;5.430;2024-01-30T05:37:41;9.60;99.90
44190;DHT22;29856;52.144;5.430;2024-01-30T05:40:07;9.60;99.90
44190;DHT22;29856;52.144;5.430;2024-01-30T05:42:32;9.60;99.90
44190;DHT22;29856;52.144;5.430;2024-01-30T05:44:58;9.60;99.90
44190;DHT22;29856;52.144;5.430;2024-01-30T05:47:23;9.70;99.90
44190;DHT22;29856;52.144;5.430;2024-01-30T05:49:49;9.70;99.90
44190;DHT22;29856;52.144;5.430;2024-01-30T05:52:14;9.70;99.90
44190;DHT22;29856;52.144;5.430;2024-01-30T05:54:39;9.70;99.90
44190;DHT22;29856;52.144;5.430;2024-01-30T05:57:05;9.70;99.90
44190;DHT22;29856;52.144;5.430;2024-01-30T05:59:31;9.80;99.90
44190;DHT22;29856;52.144;5.430;2024-01-30T06:01:56;9.80;99.90
44190;DHT22;29856;52.144;5.430;2024-01-30T06:04:22;9.70;99.90
44190;DHT22;29856;52.144;5.430;2024-01-30T06:06:48;9.80;99.90
44190;DHT22;29856;52.144;5.430;2024-01-30T06:09:13;9.80;99.90
44190;DHT22;29856;52.144;5.430;2024-01-30T06:11:39;9.80;99.90
44190;DHT22;29856;52.144;5.430;2024-01-30T06:14:04;9.80;99.90
44190;DHT22;29856;52.144;5.430;2024-01-30T06:16:30;9.80;99.90
44190;DHT22;29856;52.144;5.430;2024-01-30T06:18:56;9.80;99.90
44190;DHT22;29856;52.144;5.430;2024-01-30T06:21:22;9.80;99.90
44190;DHT22;29856;52.144;5.430;2024-01-30T06:23:47;9.80;99.90
44190;DHT22;29856;52.144;5.430;2024-01-30T06:26:13;9.80;99.90
44190;DHT22;29856;52.144;5.430;2024-01-30T06:28:38;9.80;99.90
44190;DHT22;29856;52.144;5.430;2024-01-30T06:31:04;9.90;99.90
44190;DHT22;29856;52.144;5.430;2024-01-30T06:33:29;9.90;99.90
44190;DHT22;29856;52.144;5.430;2024-01-30T06:35:55;9.90;99.90
44190;DHT22;29856;52.144;5.430;2024-01-30T06:38:20;9.90;99.90
44190;DHT22;29856;52.144;5.430;2024-01-30T06:40:45;9.90;99.90
44190;DHT22;29856;52.144;5.430;2024-01-30T06:43:11;9.80;99.90
44190;DHT22;29856;52.144;5.430;2024-01-30T06:45:37;9.80;99.90
44190;DHT22;29856;52.144;5.430;2024-01-30T06:48:02;9.90;99.90
44190;DHT22;29856;52.144;5.430;2024-01-30T06:50:28;9.80;99.90
44190;DHT22;29856;52.144;5.430;2024-01-30T06:52:53;9.90;99.90
44190;DHT22;29856;52.144;5.430;2024-01-30T06:55:19;9.90;99.90
44190;DHT22;29856;52.144;5.430;2024-01-30T06:57:44;9.80;99.90
44190;DHT22;29856;52.144;5.430;2024-01-30T07:00:10;9.90;99.90
44190;DHT22;29856;52.144;5.430;2024-01-30T07:02:36;9.90;99.90
44190;DHT22;29856;52.144;5.430;2024-01-30T07:05:01;9.90;99.90
44190;DHT22;29856;52.144;5.430;2024-01-30T07:07:27;9.80;99.90
44190;DHT22;29856;52.144;5.430;2024-01-30T07:09:52;9.90;99.90
44190;DHT22;29856;52.144;5.430;2024-01-30T07:12:18;9.90;99.90
44190;DHT22;29856;52.144;5.430;2024-01-30T07:14:43;9.90;99.90
44190;DHT22;29856;52.144;5.430;2024-01-30T07:17:09;9.90;99.90
44190;DHT22;29856;52.144;5.430;2024-01-30T07:19:34;9.90;99.90
44190;DHT22;29856;52.144;5.430;2024-01-30T07:22:00;9.90;99.90
44190;DHT22;29856;52.144;5.430;2024-01-30T07:24:25;9.90;99.90
44190;DHT22;29856;52.144;5.430;2024-01-30T07:26:51;9.90;99.90
44190;DHT22;29856;52.144;5.430;2024-01-30T07:29:17;10.00;99.90
44190;DHT22;29856;52.144;5.430;2024-01-30T07:31:42;10.00;99.90
44190;DHT22;29856;52.144;5.430;2024-01-30T07:34:08;10.00;99.90
44190;DHT22;29856;52.144;5.430;2024-01-30T07:36:34;9.90;99.90
44190;DHT22;29856;52.144;5.430;2024-01-30T07:38:59;9.90;99.90
44190;DHT22;29856;52.144;5.430;2024-01-30T07:41:24;10.00;99.90
44190;DHT22;29856;52.144;5.430;2024-01-30T07:43:50;10.00;99.90
44190;DHT22;29856;52.144;5.430;2024-01-30T07:46:16;9.90;99.90
44190;DHT22;29856;52.144;5.430;2024-01-30T07:48:41;10.00;99.90
44190;DHT22;29856;52.144;5.430;2024-01-30T07:51:07;10.00;99.90
44190;DHT22;29856;52.144;5.430;2024-01-30T07:53:32;10.00;99.90
44190;DHT22;29856;52.144;5.430;2024-01-30T07:55:58;10.00;99.90
44190;DHT22;29856;52.144;5.430;2024-01-30T07:58:23;10.00;99.90
44190;DHT22;29856;52.144;5.430;2024-01-30T08:00:49;10.10;99.90
44190;DHT22;29856;52.144;5.430;2024-01-30T08:03:14;10.10;99.90
44190;DHT22;29856;52.144;5.430;2024-01-30T08:05:40;10.10;99.90
44190;DHT22;29856;52.144;5.430;2024-01-30T08:08:05;10.20;99.90
44190;DHT22;29856;52.144;5.430;2024-01-30T08:10:31;10.20;99.90
44190;DHT22;29856;52.144;5.430;2024-01-30T08:12:56;10.20;99.90
44190;DHT22;29856;52.144;5.430;2024-01-30T08:15:22;10.20;99.90
44190;DHT22;29856;52.144;5.430;2024-01-30T08:17:47;10.30;99.90
44190;DHT22;29856;52.144;5.430;2024-01-30T08:20:13;10.30;99.90
44190;DHT22;29856;52.144;5.430;2024-01-30T08:22:39;10.30;99.90
44190;DHT22;29856;52.144;5.430;2024-01-30T08:25:05;10.40;99.90
44190;DHT22;29856;52.144;5.430;2024-01-30T08:27:31;10.40;99.90
44190;DHT22;29856;52.144;5.430;2024-01-30T08:29:56;10.40;99.90
44190;DHT22;29856;52.144;5.430;2024-01-30T08:32:22;10.50;99.90
44190;DHT22;29856;52.144;5.430;2024-01-30T08:34:47;10.60;99.90
44190;DHT22;29856;52.144;5.430;2024-01-30T08:37:13;10.60;99.90
44190;DHT22;29856;52.144;5.430;2024-01-30T08:39:38;10.60;99.90
44190;DHT22;29856;52.144;5.430;2024-01-30T08:42:04;10.70;99.90
44190;DHT22;29856;52.144;5.430;2024-01-30T08:44:30;10.70;99.90
44190;DHT22;29856;52.144;5.430;2024-01-30T08:46:55;10.70;99.90
44190;DHT22;29856;52.144;5.430;2024-01-30T08:49:21;10.80;99.90
44190;DHT22;29856;52.144;5.430;2024-01-30T08:51:46;10.80;99.90
44190;DHT22;29856;52.144;5.430;2024-01-30T08:54:12;10.90;99.90
44190;DHT22;29856;52.144;5.430;2024-01-30T08:56:37;11.00;99.90
44190;DHT22;29856;52.144;5.430;2024-01-30T08:59:03;11.00;99.90
44190;DHT22;29856;52.144;5.430;2024-01-30T09:01:28;11.10;99.90
44190;DHT22;29856;52.144;5.430;2024-01-30T09:03:54;11.10;99.90
44190;DHT22;29856;52.144;5.430;2024-01-30T09:06:19;11.20;99.90
44190;DHT22;29856;52.144;5.430;2024-01-30T09:08:45;11.20;99.90
44190;DHT22;29856;52.144;5.430;2024-01-30T09:11:12;11.30;99.90
44190;DHT22;29856;52.144;5.430;2024-01-30T09:13:38;11.40;99.90
44190;DHT22;29856;52.144;5.430;2024-01-30T09:16:04;11.30;99.90
44190;DHT22;29856;52.144;5.430;2024-01-30T09:18:30;11.40;99.90
44190;DHT22;29856;52.144;5.430;2024-01-30T09:20:55;11.50;99.90
44190;DHT22;29856;52.144;5.430;2024-01-30T09:23:21;11.60;99.90
44190;DHT22;29856;52.144;5.430;2024-01-30T09:25:46;11.60;99.90
44190;DHT22;29856;52.144;5.430;2024-01-30T09:28:12;11.70;99.90
44190;DHT22;29856;52.144;5.430;2024-01-30T09:30:37;11.70;99.90
44190;DHT22;29856;52.144;5.430;2024-01-30T09:33:03;11.70;99.90
44190;DHT22;29856;52.144;5.430;2024-01-30T09:35:28;11.70;99.90
44190;DHT22;29856;52.144;5.430;2024-01-30T09:37:54;11.70;99.90
44190;DHT22;29856;52.144;5.430;2024-01-30T09:40:19;11.70;99.90
44190;DHT22;29856;52.144;5.430;2024-01-30T09:42:47;11.80;99.90
44190;DHT22;29856;52.144;5.430;2024-01-30T09:45:14;11.80;99.90
44190;DHT22;29856;52.144;5.430;2024-01-30T09:47:42;11.80;99.90
44190;DHT22;29856;52.144;5.430;2024-01-30T09:50:08;11.80;99.90
44190;DHT22;29856;52.144;5.430;2024-01-30T09:52:34;11.80;99.90
44190;DHT22;29856;52.144;5.430;2024-01-30T09:55:00;11.80;99.90
44190;DHT22;29856;52.144;5.430;2024-01-30T09:57:26;11.80;99.90
44190;DHT22;29856;52.144;5.430;2024-01-30T09:59:51;11.80;99.90
44190;DHT22;29856;52.144;5.430;2024-01-30T10:02:18;11.80;99.90
44190;DHT22;29856;52.144;5.430;2024-01-30T10:04:44;11.90;99.90
44190;DHT22;29856;52.144;5.430;2024-01-30T10:07:10;11.90;99.90
44190;DHT22;29856;52.144;5.430;2024-01-30T10:09:36;11.90;99.90
44190;DHT22;29856;52.144;5.430;2024-01-30T10:12:02;11.90;99.90
44190;DHT22;29856;52.144;5.430;2024-01-30T10:14:28;11.90;99.90
44190;DHT22;29856;52.144;5.430;2024-01-30T10:16:53;11.90;99.90
44190;DHT22;29856;52.144;5.430;2024-01-30T10:19:19;11.90;99.90
44190;DHT22;29856;52.144;5.430;2024-01-30T10:21:46;12.00;99.90
44190;DHT22;29856;52.144;5.430;2024-01-30T10:24:11;12.00;99.90
44190;DHT22;29856;52.144;5.430;2024-01-30T10:26:38;12.00;99.90
44190;DHT22;29856;52.144;5.430;2024-01-30T10:29:03;12.00;99.90
44190;DHT22;29856;52.144;5.430;2024-01-30T10:31:29;12.20;99.90
44190;DHT22;29856;52.144;5.430;2024-01-30T10:33:55;12.20;93.70
44190;DHT22;29856;52.144;5.430;2024-01-30T10:36:26;12.20;98.00
44190;DHT22;29856;52.144;5.430;2024-01-30T10:38:55;12.30;93.00
44190;DHT22;29856;52.144;5.430;2024-01-30T10:41:26;12.30;94.20
44190;DHT22;29856;52.144;5.430;2024-01-30T10:44:05;12.40;96.20
44190;DHT22;29856;52.144;5.430;2024-01-30T10:46:33;12.40;55.10
44190;DHT22;29856;52.144;5.430;2024-01-30T10:49:00;12.50;48.60
44190;DHT22;29856;52.144;5.430;2024-01-30T10:51:26;12.50;58.40
44190;DHT22;29856;52.144;5.430;2024-01-30T10:53:52;12.50;43.20
44190;DHT22;29856;52.144;5.430;2024-01-30T10:56:20;12.40;43.20
44190;DHT22;29856;52.144;5.430;2024-01-30T10:58:50;12.30;42.10
44190;DHT22;29856;52.144;5.430;2024-01-30T11:01:17;12.40;49.70
44190;DHT22;29856;52.144;5.430;2024-01-30T11:03:43;12.40;7.10
44190;DHT22;29856;52.144;5.430;2024-01-30T11:06:11;12.50;5.30
44190;DHT22;29856;52.144;5.430;2024-01-30T11:08:36;12.40;1.00
44190;DHT22;29856;52.144;5.430;2024-01-30T11:11:09;12.40;1.00
44190;DHT22;29856;52.144;5.430;2024-01-30T11:13:34;12.50;1.00
44190;DHT22;29856;52.144;5.430;2024-01-30T11:16:04;12.40;1.00
44190;DHT22;29856;52.144;5.430;2024-01-30T11:18:31;12.50;1.00
44190;DHT22;29856;52.144;5.430;2024-01-30T11:21:01;12.60;1.00
44190;DHT22;29856;52.144;5.430;2024-01-30T11:23:27;12.60;1.00
44190;DHT22;29856;52.144;5.430;2024-01-30T11:25:53;12.70;1.00
44190;DHT22;29856;52.144;5.430;2024-01-30T11:28:21;12.70;1.00
44190;DHT22;29856;52.144;5.430;2024-01-30T11:30:47;12.70;1.00
44190;DHT22;29856;52.144;5.430;2024-01-30T11:33:14;12.60;1.00
44190;DHT22;29856;52.144;5.430;2024-01-30T11:35:41;12.60;1.00
44190;DHT22;29856;52.144;5.430;2024-01-30T11:38:12;12.50;1.00
44190;DHT22;29856;52.144;5.430;2024-01-30T11:40:38;12.40;99.90
44190;DHT22;29856;52.144;5.430;2024-01-30T11:43:05;12.30;99.90
44190;DHT22;29856;52.144;5.430;2024-01-30T11:45:32;12.20;1.00
44190;DHT22;29856;52.144;5.430;2024-01-30T11:47:58;12.20;1.00
44190;DHT22;29856;52.144;5.430;2024-01-30T11:50:24;12.20;1.00
44190;DHT22;29856;52.144;5.430;2024-01-30T11:52:50;12.10;1.00
44190;DHT22;29856;52.144;5.430;2024-01-30T11:55:16;12.00;1.00
44190;DHT22;29856;52.144;5.430;2024-01-30T11:57:41;11.90;1.00
44190;DHT22;29856;52.144;5.430;2024-01-30T12:00:14;11.80;1.00
44190;DHT22;29856;52.144;5.430;2024-01-30T12:02:40;11.90;1.00
44190;DHT22;29856;52.144;5.430;2024-01-30T12:05:06;11.70;1.00
44190;DHT22;29856;52.144;5.430;2024-01-30T12:07:33;11.80;1.00
44190;DHT22;29856;52.144;5.430;2024-01-30T12:09:59;11.70;1.00
44190;DHT22;29856;52.144;5.430;2024-01-30T12:12:26;11.70;1.00
44190;DHT22;29856;52.144;5.430;2024-01-30T12:14:51;11.70;1.00
44190;DHT22;29856;52.144;5.430;2024-01-30T12:20:09;11.60;1.00
44190;DHT22;29856;52.144;5.430;2024-01-30T12:22:48;11.70;1.00
44190;DHT22;29856;52.144;5.430;2024-01-30T12:25:15;11.70;99.90
44190;DHT22;29856;52.144;5.430;2024-01-30T12:27:45;11.70;99.90
44190;DHT22;29856;52.144;5.430;2024-01-30T12:30:12;11.60;1.00
44190;DHT22;29856;52.144;5.430;2024-01-30T12:32:42;11.50;1.00
44190;DHT22;29856;52.144;5.430;2024-01-30T12:35:12;11.50;1.00
44190;DHT22;29856;52.144;5.430;2024-01-30T12:37:38;11.30;1.00
44190;DHT22;29856;52.144;5.430;2024-01-30T12:40:04;11.10;1.00
44190;DHT22;29856;52.144;5.430;2024-01-30T12:42:30;11.10;1.00
44190;DHT22;29856;52.144;5.430;2024-01-30T12:44:57;10.90;1.00
44190;DHT22;29856;52.144;5.430;2024-01-30T12:47:23;11.00;1.00
44190;DHT22;29856;52.144;5.430;2024-01-30T12:49:48;11.00;1.00
44190;DHT22;29856;52.144;5.430;2024-01-30T12:52:17;11.00;1.00
44190;DHT22;29856;52.144;5.430;2024-01-30T12:54:42;11.00;1.00
44190;DHT22;29856;52.144;5.430;2024-01-30T12:57:08;10.90;1.00
44190;DHT22;29856;52.144;5.430;2024-01-30T12:59:33;10.90;1.00
44190;DHT22;29856;52.144;5.430;2024-01-30T13:02:00;10.90;1.00
44190;DHT22;29856;52.144;5.430;2024-01-30T13:04:27;11.00;1.00
44190;DHT22;29856;52.144;5.430;2024-01-30T13:06:52;11.10;1.00
44190;DHT22;29856;52.144;5.430;2024-01-30T13:09:18;11.10;1.00
44190;DHT22;29856;52.144;5.430;2024-01-30T13:11:43;11.10;1.00
44190;DHT22;29856;52.144;5.430;2024-01-30T13:14:09;11.10;1.00
44190;DHT22;29856;52.144;5.430;2024-01-30T13:16:34;11.10;1.00
44190;DHT22;29856;52.144;5.430;2024-01-30T13:19:00;11.00;1.00
44190;DHT22;29856;52.144;5.430;2024-01-30T13:21:25;11.00;1.00
44190;DHT22;29856;52.144;5.430;2024-01-30T13:23:51;11.00;1.00
44190;DHT22;29856;52.144;5.430;2024-01-30T13:26:16;11.10;1.00
44190;DHT22;29856;52.144;5.430;2024-01-30T13:28:42;11.00;1.00
44190;DHT22;29856;52.144;5.430;2024-01-30T13:31:07;11.00;1.00
44190;DHT22;29856;52.144;5.430;2024-01-30T13:33:33;11.00;1.00
44190;DHT22;29856;52.144;5.430;2024-01-30T13:35:58;10.80;1.00
44190;DHT22;29856;52.144;5.430;2024-01-30T13:38:24;10.80;1.00
44190;DHT22;29856;52.144;5.430;2024-01-30T13:40:49;10.70;1.00
44190;DHT22;29856;52.144;5.430;2024-01-30T13:43:15;10.70;1.00
44190;DHT22;29856;52.144;5.430;2024-01-30T13:45:40;10.80;1.00
44190;DHT22;29856;52.144;5.430;2024-01-30T13:48:06;10.70;1.00
44190;DHT22;29856;52.144;5.430;2024-01-30T13:50:31;10.60;1.00
44190;DHT22;29856;52.144;5.430;2024-01-30T13:52:57;10.60;1.10
44190;DHT22;29856;52.144;5.430;2024-01-30T13:55:22;10.50;1.00
44190;DHT22;29856;52.144;5.430;2024-01-30T13:57:48;10.60;22.80
44190;DHT22;29856;52.144;5.430;2024-01-30T14:00:13;10.70;1.00
44190;DHT22;29856;52.144;5.430;2024-01-30T14:02:39;10.60;1.00
44190;DHT22;29856;52.144;5.430;2024-01-30T14:05:04;10.50;26.90
44190;DHT22;29856;52.144;5.430;2024-01-30T14:07:30;10.50;53.50
44190;DHT22;29856;52.144;5.430;2024-01-30T14:09:55;10.50;58.70
44190;DHT22;29856;52.144;5.430;2024-01-30T14:12:21;10.50;53.70
44190;DHT22;29856;52.144;5.430;2024-01-30T14:14:46;10.40;43.60
44190;DHT22;29856;52.144;5.430;2024-01-30T14:17:12;10.40;81.20
44190;DHT22;29856;52.144;5.430;2024-01-30T14:19:37;10.50;74.40
44190;DHT22;29856;52.144;5.430;2024-01-30T14:22:03;10.40;93.10
44190;DHT22;29856;52.144;5.430;2024-01-30T14:24:28;10.40;99.90
44190;DHT22;29856;52.144;5.430;2024-01-30T14:26:54;10.40;99.90
44190;DHT22;29856;52.144;5.430;2024-01-30T14:29:19;10.40;99.90
44190;DHT22;29856;52.144;5.430;2024-01-30T14:31:45;10.30;99.90
44190;DHT22;29856;52.144;5.430;2024-01-30T14:34:10;10.40;99.90
44190;DHT22;29856;52.144;5.430;2024-01-30T14:36:39;10.40;99.90
44190;DHT22;29856;52.144;5.430;2024-01-30T14:39:04;10.40;99.90
44190;DHT22;29856;52.144;5.430;2024-01-30T14:41:30;10.40;99.90
44190;DHT22;29856;52.144;5.430;2024-01-30T14:43:55;10.40;99.90
44190;DHT22;29856;52.144;5.430;2024-01-30T14:46:21;10.30;99.90
44190;DHT22;29856;52.144;5.430;2024-01-30T14:48:47;10.30;99.90
44190;DHT22;29856;52.144;5.430;2024-01-30T14:51:12;10.20;99.90
44190;DHT22;29856;52.144;5.430;2024-01-30T14:53:38;10.20;99.90
44190;DHT22;29856;52.144;5.430;2024-01-30T14:56:04;10.20;99.90
44190;DHT22;29856;52.144;5.430;2024-01-30T14:58:29;10.10;99.90
44190;DHT22;29856;52.144;5.430;2024-01-30T15:00:55;10.10;99.90
44190;DHT22;29856;52.144;5.430;2024-01-30T15:03:20;10.10;99.90
44190;DHT22;29856;52.144;5.430;2024-01-30T15:05:46;10.10;99.90
44190;DHT22;29856;52.144;5.430;2024-01-30T15:08:11;10.00;99.90
44190;DHT22;29856;52.144;5.430;2024-01-30T15:10:37;10.00;99.90
44190;DHT22;29856;52.144;5.430;2024-01-30T15:13:02;9.90;99.90
44190;DHT22;29856;52.144;5.430;2024-01-30T15:15:28;9.80;99.90
44190;DHT22;29856;52.144;5.430;2024-01-30T15:17:53;9.80;99.90
44190;DHT22;29856;52.144;5.430;2024-01-30T15:20:19;9.80;99.90
44190;DHT22;29856;52.144;5.430;2024-01-30T15:22:44;9.80;99.90
44190;DHT22;29856;52.144;5.430;2024-01-30T15:25:10;9.80;99.90
44190;DHT22;29856;52.144;5.430;2024-01-30T15:27:35;9.80;99.90
44190;DHT22;29856;52.144;5.430;2024-01-30T15:30:01;9.70;99.90
44190;DHT22;29856;52.144;5.430;2024-01-30T15:32:26;9.70;99.90
44190;DHT22;29856;52.144;5.430;2024-01-30T15:34:51;9.70;99.90